createdAt,value
2023-08-12T00:00:22.122Z,13.90
2023-08-12T00:00:54.713Z,14.20
2023-08-12T00:01:27.350Z,13.80
2023-08-12T00:01:59.902Z,13.73
2023-08-12T00:02:32.610Z,12.90
2023-08-12T00:03:05.511Z,12.70
2023-08-12T00:03:38.163Z,12.57
2023-08-12T00:04:10.987Z,13.63
2023-08-12T00:04:43.524Z,13.30
2023-08-12T00:05:16.094Z,13.63
2023-08-12T00:05:48.639Z,13.93
2023-08-12T00:06:21.126Z,14.17
2023-08-12T00:06:54.123Z,14.07
2023-08-12T00:07:26.656Z,14.33
2023-08-12T00:07:59.196Z,13.97
2023-08-12T00:08:32.078Z,14.03
2023-08-12T00:09:05.062Z,13.27
2023-08-12T00:09:37.545Z,14.43
2023-08-12T00:10:11.701Z,13.83
2023-08-12T00:10:44.827Z,13.57
2023-08-12T00:11:17.335Z,13.10
2023-08-12T00:11:49.844Z,13.60
2023-08-12T00:12:22.332Z,13.33
2023-08-12T00:12:54.885Z,14.23
2023-08-12T00:14:08.703Z,14.63
2023-08-12T00:14:41.238Z,13.30
2023-08-12T00:15:13.867Z,13.93
2023-08-12T00:15:46.416Z,13.00
2023-08-12T00:16:19.005Z,13.70
2023-08-12T00:16:51.557Z,13.83
2023-08-12T00:17:24.089Z,14.47
2023-08-12T00:17:56.664Z,13.93
2023-08-12T00:18:29.882Z,13.43
2023-08-12T00:19:02.628Z,14.33
2023-08-12T00:19:35.122Z,14.83
2023-08-12T00:20:09.798Z,15.57
2023-08-12T00:20:43.478Z,14.57
2023-08-12T00:21:16.097Z,14.70
2023-08-12T00:21:48.654Z,15.10
2023-08-12T00:22:21.236Z,15.90
2023-08-12T00:22:53.746Z,16.53
2023-08-12T00:23:26.296Z,15.87
2023-08-12T00:23:58.857Z,15.37
2023-08-12T00:24:31.786Z,13.87
2023-08-12T00:25:04.750Z,14.40
2023-08-12T00:25:37.279Z,15.33
2023-08-12T00:26:10.183Z,14.27
2023-08-12T00:26:42.982Z,13.60
2023-08-12T00:27:15.482Z,14.63
2023-08-12T00:27:48.049Z,13.73
2023-08-12T00:28:20.578Z,12.43
2023-08-12T00:28:53.218Z,12.00
2023-08-12T00:29:25.779Z,12.43
2023-08-12T00:29:58.327Z,10.53
2023-08-12T00:30:30.866Z,10.83
2023-08-12T00:31:04.005Z,11.50
2023-08-12T00:31:36.592Z,11.33
2023-08-12T00:32:10.403Z,11.13
2023-08-12T00:32:43.032Z,11.73
2023-08-12T00:33:15.544Z,10.73
2023-08-12T00:33:48.039Z,11.13
2023-08-12T00:34:20.593Z,10.70
2023-08-12T00:34:53.145Z,11.20
2023-08-12T00:35:25.691Z,11.60
2023-08-12T00:35:58.221Z,11.03
2023-08-12T00:36:30.792Z,11.57
2023-08-12T00:37:03.333Z,11.87
2023-08-12T00:37:35.878Z,12.03
2023-08-12T00:38:08.378Z,11.33
2023-08-12T00:38:40.880Z,11.40
2023-08-12T00:39:13.567Z,11.13
2023-08-12T00:39:46.452Z,10.77
2023-08-12T00:40:18.971Z,10.63
2023-08-12T00:40:51.547Z,10.50
2023-08-12T00:41:24.110Z,10.10
2023-08-12T00:41:56.608Z,10.50
2023-08-12T00:42:29.137Z,11.03
2023-08-12T00:43:01.660Z,11.00
2023-08-12T00:43:34.201Z,12.13
2023-08-12T00:44:06.748Z,11.83
2023-08-12T00:44:39.268Z,10.87
2023-08-12T00:45:14.449Z,10.83
2023-08-12T00:45:47.030Z,11.63
2023-08-12T00:46:19.623Z,11.60
2023-08-12T00:46:52.411Z,11.57
2023-08-12T00:47:25.267Z,11.63
2023-08-12T00:47:58.434Z,11.47
2023-08-12T00:48:31.052Z,11.00
2023-08-12T00:49:03.958Z,11.13
2023-08-12T00:49:38.654Z,11.67
2023-08-12T00:50:14.955Z,12.23
2023-08-12T00:50:48.281Z,12.30
2023-08-12T00:51:21.560Z,11.93
2023-08-12T00:51:55.163Z,11.47
2023-08-12T00:52:27.937Z,11.83
2023-08-12T00:53:01.065Z,11.10
2023-08-12T00:53:33.603Z,10.87
2023-08-12T00:54:07.667Z,11.60
2023-08-12T00:54:40.380Z,11.77
2023-08-12T00:55:13.233Z,12.47
2023-08-12T00:55:46.265Z,12.20
2023-08-12T00:56:18.952Z,11.73
2023-08-12T00:56:53.115Z,11.13
2023-08-12T00:57:27.102Z,12.50
2023-08-12T00:57:59.858Z,12.53
2023-08-12T00:58:32.467Z,11.47
2023-08-12T00:59:07.072Z,10.80
2023-08-12T00:59:42.618Z,11.20
2023-08-12T01:00:17.127Z,11.03
2023-08-12T01:00:50.424Z,11.97
2023-08-12T01:01:22.998Z,11.27
2023-08-12T01:01:55.718Z,12.07
2023-08-12T01:02:28.304Z,11.90
2023-08-12T01:03:01.822Z,11.37
2023-08-12T01:03:34.606Z,12.20
2023-08-12T01:04:07.204Z,13.47
2023-08-12T01:04:40.096Z,12.87
2023-08-12T01:05:12.701Z,12.83
2023-08-12T01:05:46.025Z,12.23
2023-08-12T01:06:18.715Z,12.83
2023-08-12T01:06:51.232Z,12.30
2023-08-12T01:07:23.784Z,12.57
2023-08-12T01:07:56.964Z,12.83
2023-08-12T01:08:32.666Z,13.77
2023-08-12T01:09:06.747Z,13.37
2023-08-12T01:09:39.478Z,13.00
2023-08-12T01:10:15.571Z,11.70
2023-08-12T01:10:54.244Z,12.10
2023-08-12T01:11:37.620Z,13.83
2023-08-12T01:12:22.220Z,13.47
2023-08-12T01:13:09.314Z,12.17
2023-08-12T01:13:57.089Z,12.37
2023-08-12T01:15:00.217Z,12.53
2023-08-12T01:15:33.063Z,12.50
2023-08-12T01:16:09.254Z,12.57
2023-08-12T01:16:47.501Z,12.57
2023-08-12T01:17:20.359Z,12.43
2023-08-12T01:17:55.237Z,11.33
2023-08-12T01:18:28.923Z,11.93
2023-08-12T01:19:05.745Z,11.90
2023-08-12T01:19:40.269Z,11.93
2023-08-12T01:20:16.085Z,12.47
2023-08-12T01:20:49.233Z,11.77
2023-08-12T01:21:23.507Z,11.27
2023-08-12T01:22:00.498Z,12.10
2023-08-12T01:22:33.661Z,12.70
2023-08-12T01:23:15.868Z,11.57
2023-08-12T01:23:48.736Z,11.57
2023-08-12T01:24:23.393Z,12.07
2023-08-12T01:24:56.496Z,12.30
2023-08-12T01:25:29.074Z,12.30
2023-08-12T01:26:01.635Z,12.40
2023-08-12T01:26:34.188Z,12.17
2023-08-12T01:27:08.242Z,12.43
2023-08-12T01:27:40.778Z,12.13
2023-08-12T01:28:13.306Z,12.50
2023-08-12T01:28:45.859Z,12.77
2023-08-12T01:29:19.736Z,11.80
2023-08-12T01:29:53.608Z,11.30
2023-08-12T01:30:26.161Z,11.97
2023-08-12T01:31:09.167Z,11.77
2023-08-12T01:31:51.396Z,11.03
2023-08-12T01:32:29.972Z,11.03
2023-08-12T01:33:16.039Z,12.17
2023-08-12T01:33:57.745Z,11.57
2023-08-12T01:34:47.026Z,10.63
2023-08-12T01:35:27.313Z,11.27
2023-08-12T01:36:14.304Z,10.50
2023-08-12T01:36:55.800Z,10.23
2023-08-12T01:37:33.361Z,11.10
2023-08-12T01:38:07.658Z,11.47
2023-08-12T01:38:41.996Z,12.17
2023-08-12T01:39:14.859Z,12.33
2023-08-12T01:39:49.469Z,12.97
2023-08-12T01:40:23.055Z,12.00
2023-08-12T01:40:56.165Z,10.60
2023-08-12T01:41:29.233Z,10.63
2023-08-12T01:42:02.382Z,10.27
2023-08-12T01:42:35.990Z,10.53
2023-08-12T01:43:09.460Z,10.53
2023-08-12T01:43:42.819Z,11.13
2023-08-12T01:44:15.664Z,10.40
2023-08-12T01:44:49.429Z,10.60
2023-08-12T01:45:22.141Z,10.07
2023-08-12T01:45:55.060Z,10.63
2023-08-12T01:46:27.737Z,10.63
2023-08-12T01:47:01.367Z,10.53
2023-08-12T01:47:33.969Z,10.47
2023-08-12T01:48:07.204Z,9.97
2023-08-12T01:48:39.750Z,10.57
2023-08-12T01:49:12.307Z,10.00
2023-08-12T01:49:44.849Z,9.87
2023-08-12T01:50:17.593Z,9.90
2023-08-12T01:50:50.166Z,10.00
2023-08-12T01:51:22.848Z,9.80
2023-08-12T01:51:55.348Z,9.87
2023-08-12T01:52:27.856Z,10.10
2023-08-12T01:53:00.404Z,10.10
2023-08-12T01:53:32.895Z,10.73
2023-08-12T01:54:05.607Z,10.23
2023-08-12T01:54:38.133Z,10.43
2023-08-12T01:55:10.743Z,11.07
2023-08-12T01:55:46.217Z,10.77
2023-08-12T01:56:18.764Z,11.30
2023-08-12T01:56:51.267Z,11.17
2023-08-12T01:57:23.807Z,10.93
2023-08-12T01:57:56.375Z,10.73
2023-08-12T01:58:28.947Z,10.93
2023-08-12T01:59:01.512Z,10.97
2023-08-12T01:59:34.102Z,10.97
2023-08-12T02:00:07.543Z,10.40
2023-08-12T02:00:40.134Z,10.90
2023-08-12T02:01:12.717Z,10.83
2023-08-12T02:01:45.323Z,10.23
2023-08-12T02:02:17.879Z,10.37
2023-08-12T02:02:50.427Z,10.17
2023-08-12T02:03:23.085Z,10.07
2023-08-12T02:03:55.859Z,9.87
2023-08-12T02:04:28.867Z,10.10
2023-08-12T02:05:01.459Z,10.93
2023-08-12T02:05:34.552Z,10.57
2023-08-12T02:06:07.095Z,10.63
2023-08-12T02:06:39.609Z,10.60
2023-08-12T02:07:12.345Z,9.40
2023-08-12T02:07:46.216Z,9.63
2023-08-12T02:08:18.809Z,9.53
2023-08-12T02:08:52.048Z,9.63
2023-08-12T02:09:24.645Z,9.73
2023-08-12T02:09:57.343Z,9.70
2023-08-12T02:10:29.884Z,10.33
2023-08-12T02:11:02.395Z,10.57
2023-08-12T02:11:34.898Z,10.47
2023-08-12T02:12:07.911Z,10.67
2023-08-12T02:12:40.438Z,9.87
2023-08-12T02:13:12.953Z,9.93
2023-08-12T02:13:45.499Z,10.23
2023-08-12T02:14:18.260Z,9.83
2023-08-12T02:14:50.801Z,9.90
2023-08-12T02:15:23.374Z,10.27
2023-08-12T02:15:55.918Z,10.27
2023-08-12T02:16:28.477Z,10.83
2023-08-12T02:17:01.219Z,10.33
2023-08-12T02:17:33.800Z,10.97
2023-08-12T02:18:06.492Z,11.30
2023-08-12T02:18:39.012Z,10.70
2023-08-12T02:19:11.592Z,10.50
2023-08-12T02:19:47.276Z,9.97
2023-08-12T02:20:19.834Z,10.83
2023-08-12T02:20:52.383Z,10.50
2023-08-12T02:21:24.951Z,10.53
2023-08-12T02:21:57.655Z,10.00
2023-08-12T02:22:30.581Z,9.90
2023-08-12T02:23:03.206Z,10.07
2023-08-12T02:23:35.933Z,10.13
2023-08-12T02:24:09.292Z,11.13
2023-08-12T02:24:41.800Z,11.10
2023-08-12T02:25:14.332Z,10.97
2023-08-12T02:25:47.976Z,10.17
2023-08-12T02:26:20.508Z,9.97
2023-08-12T02:26:53.054Z,10.40
2023-08-12T02:27:25.626Z,9.73
2023-08-12T02:27:58.160Z,9.80
2023-08-12T02:28:30.707Z,10.47
2023-08-12T02:29:03.303Z,9.93
2023-08-12T02:29:35.849Z,10.17
2023-08-12T02:30:08.812Z,10.33
2023-08-12T02:30:44.288Z,10.77
2023-08-12T02:31:17.344Z,10.37
2023-08-12T02:31:49.867Z,10.30
2023-08-12T02:32:22.439Z,9.97
2023-08-12T02:32:55.031Z,10.40
2023-08-12T02:33:27.655Z,10.47
2023-08-12T02:34:00.251Z,10.93
2023-08-12T02:34:32.817Z,10.53
2023-08-12T02:35:05.588Z,10.40
2023-08-12T02:35:38.156Z,10.67
2023-08-12T02:36:10.986Z,10.80
2023-08-12T02:36:43.520Z,10.40
2023-08-12T02:37:16.132Z,9.87
2023-08-12T02:37:51.965Z,9.97
2023-08-12T02:38:24.494Z,11.03
2023-08-12T02:38:57.028Z,10.60
2023-08-12T02:39:29.597Z,10.43
2023-08-12T02:40:05.763Z,11.47
2023-08-12T02:40:38.334Z,10.37
2023-08-12T02:41:10.850Z,11.03
2023-08-12T02:41:43.502Z,11.10
2023-08-12T02:42:16.034Z,11.80
2023-08-12T02:42:48.543Z,11.60
2023-08-12T02:43:21.048Z,11.47
2023-08-12T02:43:53.666Z,10.83
2023-08-12T02:44:26.164Z,10.37
2023-08-12T02:44:58.806Z,10.60
2023-08-12T02:45:31.334Z,10.97
2023-08-12T02:46:03.975Z,11.30
2023-08-12T02:46:36.547Z,10.47
2023-08-12T02:47:09.273Z,10.53
2023-08-12T02:47:42.078Z,10.13
2023-08-12T02:48:14.777Z,10.57
2023-08-12T02:48:48.701Z,10.97
2023-08-12T02:49:21.381Z,10.90
2023-08-12T02:49:53.923Z,11.30
2023-08-12T02:50:26.491Z,10.10
2023-08-12T02:50:59.008Z,10.50
2023-08-12T02:51:31.546Z,11.60
2023-08-12T02:52:04.183Z,10.37
2023-08-12T02:52:36.857Z,11.00
2023-08-12T02:53:09.454Z,10.80
2023-08-12T02:53:41.943Z,10.77
2023-08-12T02:54:14.500Z,10.93
2023-08-12T02:54:47.038Z,10.27
2023-08-12T02:55:19.639Z,10.47
2023-08-12T02:55:52.149Z,9.77
2023-08-12T02:56:24.644Z,10.57
2023-08-12T02:56:57.143Z,10.23
2023-08-12T02:57:29.669Z,10.17
2023-08-12T02:58:02.965Z,10.23
2023-08-12T02:58:35.718Z,10.23
2023-08-12T02:59:08.318Z,10.27
2023-08-12T02:59:40.861Z,9.73
2023-08-12T03:00:14.154Z,9.60
2023-08-12T03:00:46.723Z,10.53
2023-08-12T03:01:19.321Z,10.37
2023-08-12T03:01:51.829Z,10.43
2023-08-12T03:02:24.387Z,10.87
2023-08-12T03:02:57.416Z,10.77
2023-08-12T03:03:30.039Z,10.27
2023-08-12T03:04:02.613Z,9.67
2023-08-12T03:04:35.281Z,9.80
2023-08-12T03:05:08.322Z,9.80
2023-08-12T03:05:41.970Z,9.83
2023-08-12T03:06:14.550Z,9.63
2023-08-12T03:06:47.043Z,9.30
2023-08-12T03:07:19.587Z,9.40
2023-08-12T03:07:54.978Z,10.07
2023-08-12T03:08:27.464Z,9.33
2023-08-12T03:09:00.172Z,8.97
2023-08-12T03:09:32.689Z,9.30
2023-08-12T03:10:05.766Z,10.23
2023-08-12T03:10:39.965Z,10.93
2023-08-12T03:11:12.496Z,10.27
2023-08-12T03:11:45.187Z,11.57
2023-08-12T03:12:17.733Z,10.67
2023-08-12T03:12:50.241Z,10.70
2023-08-12T03:13:22.742Z,10.80
2023-08-12T03:13:55.282Z,11.87
2023-08-12T03:14:29.440Z,12.03
2023-08-12T03:15:02.983Z,11.03
2023-08-12T03:15:35.540Z,10.53
2023-08-12T03:16:14.369Z,10.37
2023-08-12T03:16:46.896Z,10.63
2023-08-12T03:17:19.411Z,10.67
2023-08-12T03:17:52.005Z,10.63
2023-08-12T03:18:24.548Z,10.93
2023-08-12T03:18:57.247Z,11.07
2023-08-12T03:19:29.792Z,11.03
2023-08-12T03:20:02.599Z,11.03
2023-08-12T03:20:35.201Z,10.60
2023-08-12T03:21:10.949Z,11.33
2023-08-12T03:21:43.506Z,10.90
2023-08-12T03:22:16.023Z,11.03
2023-08-12T03:22:48.525Z,11.27
2023-08-12T03:23:21.070Z,11.43
2023-08-12T03:23:53.650Z,11.23
2023-08-12T03:24:26.173Z,11.47
2023-08-12T03:24:58.742Z,11.87
2023-08-12T03:25:31.334Z,11.53
2023-08-12T03:26:04.048Z,11.13
2023-08-12T03:26:36.548Z,11.23
2023-08-12T03:27:09.187Z,11.07
2023-08-12T03:27:42.208Z,11.47
2023-08-12T03:28:14.855Z,11.77
2023-08-12T03:28:47.370Z,10.73
2023-08-12T03:29:19.931Z,11.80
2023-08-12T03:29:52.573Z,11.30
2023-08-12T03:30:25.137Z,11.37
2023-08-12T03:30:58.257Z,11.23
2023-08-12T03:31:30.805Z,10.50
2023-08-12T03:32:03.721Z,11.13
2023-08-12T03:32:36.636Z,11.13
2023-08-12T03:33:09.248Z,10.87
2023-08-12T03:33:41.832Z,11.33
2023-08-12T03:34:14.346Z,11.50
2023-08-12T03:34:46.887Z,11.53
2023-08-12T03:35:20.371Z,10.80
2023-08-12T03:35:52.979Z,11.23
2023-08-12T03:36:25.539Z,10.97
2023-08-12T03:36:58.082Z,11.40
2023-08-12T03:37:30.579Z,11.60
2023-08-12T03:38:03.072Z,11.10
2023-08-12T03:38:37.113Z,11.00
2023-08-12T03:39:09.733Z,11.13
2023-08-12T03:39:42.265Z,11.50
2023-08-12T03:40:14.774Z,11.57
2023-08-12T03:40:47.317Z,11.83
2023-08-12T03:41:19.827Z,10.93
2023-08-12T03:41:52.375Z,11.20
2023-08-12T03:42:25.359Z,11.20
2023-08-12T03:42:57.894Z,11.53
2023-08-12T03:43:30.450Z,11.83
2023-08-12T03:44:02.959Z,12.00
2023-08-12T03:44:35.465Z,12.33
2023-08-12T03:45:08.418Z,11.57
2023-08-12T03:45:42.568Z,11.13
2023-08-12T03:46:15.068Z,11.57
2023-08-12T03:46:47.651Z,11.60
2023-08-12T03:47:23.170Z,11.70
2023-08-12T03:47:55.758Z,11.67
2023-08-12T03:48:28.346Z,11.33
2023-08-12T03:49:00.883Z,11.93
2023-08-12T03:49:33.466Z,11.67
2023-08-12T03:50:07.480Z,11.13
2023-08-12T03:50:42.490Z,11.23
2023-08-12T03:51:15.038Z,11.03
2023-08-12T03:51:47.532Z,11.07
2023-08-12T03:52:20.053Z,11.70
2023-08-12T03:52:52.600Z,11.30
2023-08-12T03:53:25.147Z,10.83
2023-08-12T03:53:58.342Z,11.47
2023-08-12T03:54:30.893Z,11.13
2023-08-12T03:55:03.548Z,11.27
2023-08-12T03:55:36.125Z,11.50
2023-08-12T03:56:08.677Z,10.77
2023-08-12T03:56:41.197Z,10.87
2023-08-12T03:57:13.950Z,10.53
2023-08-12T03:57:46.787Z,11.23
2023-08-12T03:58:19.360Z,11.20
2023-08-12T03:58:52.571Z,11.40
2023-08-12T03:59:25.093Z,11.63
2023-08-12T03:59:57.597Z,11.80
2023-08-12T04:00:30.093Z,10.90
2023-08-12T04:01:02.677Z,11.23
2023-08-12T04:01:35.242Z,10.70
2023-08-12T04:02:07.750Z,10.80
2023-08-12T04:02:40.339Z,11.10
2023-08-12T04:03:12.971Z,11.23
2023-08-12T04:03:45.575Z,12.03
2023-08-12T04:04:18.085Z,11.37
2023-08-12T04:04:50.614Z,11.13
2023-08-12T04:05:23.295Z,11.30
2023-08-12T04:05:55.807Z,11.70
2023-08-12T04:06:28.345Z,10.67
2023-08-12T04:07:01.449Z,10.97
2023-08-12T04:07:34.024Z,11.40
2023-08-12T04:08:06.644Z,11.17
2023-08-12T04:08:39.145Z,10.80
2023-08-12T04:09:11.732Z,10.93
2023-08-12T04:09:44.291Z,11.30
2023-08-12T04:10:16.831Z,11.80
2023-08-12T04:10:52.214Z,10.83
2023-08-12T04:11:24.726Z,11.30
2023-08-12T04:11:57.583Z,11.20
2023-08-12T04:12:30.104Z,11.03
2023-08-12T04:13:02.608Z,10.90
2023-08-12T04:13:35.124Z,10.77
2023-08-12T04:14:07.667Z,11.37
2023-08-12T04:14:42.208Z,11.57
2023-08-12T04:15:14.857Z,10.97
2023-08-12T04:15:52.194Z,11.43
2023-08-12T04:16:25.019Z,11.00
2023-08-12T04:16:57.629Z,10.87
2023-08-12T04:17:30.218Z,10.93
2023-08-12T04:18:02.820Z,11.60
2023-08-12T04:18:35.359Z,11.63
2023-08-12T04:19:07.905Z,11.33
2023-08-12T04:19:40.430Z,11.90
2023-08-12T04:20:13.353Z,11.77
2023-08-12T04:20:51.102Z,12.13
2023-08-12T04:21:23.648Z,11.03
2023-08-12T04:21:56.142Z,11.50
2023-08-12T04:22:29.173Z,12.07
2023-08-12T04:23:01.707Z,11.83
2023-08-12T04:23:34.350Z,11.87
2023-08-12T04:24:07.399Z,11.97
2023-08-12T04:24:39.930Z,11.03
2023-08-12T04:25:12.489Z,11.40
2023-08-12T04:25:46.318Z,12.30
2023-08-12T04:26:18.839Z,13.20
2023-08-12T04:26:51.373Z,12.30
2023-08-12T04:27:23.905Z,10.97
2023-08-12T04:27:56.410Z,11.93
2023-08-12T04:28:28.910Z,12.47
2023-08-12T04:29:01.445Z,12.47
2023-08-12T04:29:33.974Z,11.07
2023-08-12T04:30:07.368Z,11.40
2023-08-12T04:30:49.582Z,12.37
2023-08-12T04:31:22.371Z,11.87
2023-08-12T04:31:54.967Z,12.00
2023-08-12T04:32:27.480Z,12.40
2023-08-12T04:33:00.050Z,11.27
2023-08-12T04:33:32.651Z,11.33
2023-08-12T04:34:05.262Z,11.63
2023-08-12T04:34:37.809Z,12.00
2023-08-12T04:35:10.395Z,11.83
2023-08-12T04:35:43.314Z,12.53
2023-08-12T04:36:15.896Z,11.53
2023-08-12T04:36:48.411Z,12.00
2023-08-12T04:37:20.921Z,12.17
2023-08-12T04:37:53.438Z,12.27
2023-08-12T04:38:26.827Z,11.17
2023-08-12T04:38:59.392Z,10.90
2023-08-12T04:39:34.197Z,11.07
2023-08-12T04:40:08.497Z,11.07
2023-08-12T04:40:41.870Z,10.97
2023-08-12T04:41:14.577Z,10.63
2023-08-12T04:41:47.719Z,12.17
2023-08-12T04:42:20.237Z,12.60
2023-08-12T04:42:52.903Z,12.33
2023-08-12T04:43:25.753Z,11.67
2023-08-12T04:43:58.263Z,10.70
2023-08-12T04:44:30.822Z,10.80
2023-08-12T04:45:04.695Z,11.57
2023-08-12T04:45:37.343Z,11.43
2023-08-12T04:46:09.942Z,11.13
2023-08-12T04:46:42.480Z,11.07
2023-08-12T04:47:15.046Z,11.67
2023-08-12T04:47:47.621Z,10.80
2023-08-12T04:48:20.180Z,10.53
2023-08-12T04:48:52.934Z,10.93
2023-08-12T04:49:26.915Z,11.23
2023-08-12T04:49:59.434Z,11.33
2023-08-12T04:50:32.478Z,11.20
2023-08-12T04:51:06.304Z,11.30
2023-08-12T04:51:39.576Z,11.10
2023-08-12T04:52:12.142Z,11.50
2023-08-12T04:52:44.701Z,11.40
2023-08-12T04:53:17.249Z,11.27
2023-08-12T04:53:49.826Z,10.90
2023-08-12T04:54:22.393Z,10.70
2023-08-12T04:54:55.388Z,11.63
2023-08-12T04:55:28.695Z,11.27
2023-08-12T04:56:01.250Z,10.63
2023-08-12T04:56:33.787Z,11.47
2023-08-12T04:57:06.813Z,10.73
2023-08-12T04:57:39.367Z,10.20
2023-08-12T04:58:12.042Z,9.63
2023-08-12T04:58:44.539Z,9.90
2023-08-12T04:59:17.071Z,10.47
2023-08-12T04:59:49.631Z,9.97
2023-08-12T05:00:23.251Z,9.80
2023-08-12T05:00:55.839Z,10.77
2023-08-12T05:01:28.434Z,10.17
2023-08-12T05:02:05.151Z,10.47
2023-08-12T05:02:38.269Z,10.10
2023-08-12T05:03:10.913Z,9.90
2023-08-12T05:03:43.503Z,10.67
2023-08-12T05:04:16.559Z,10.07
2023-08-12T05:04:52.756Z,9.47
2023-08-12T05:05:27.229Z,10.13
2023-08-12T05:05:59.816Z,9.63
2023-08-12T05:06:32.298Z,9.17
2023-08-12T05:07:04.818Z,9.37
2023-08-12T05:07:40.017Z,9.17
2023-08-12T05:08:13.645Z,8.93
2023-08-12T05:08:46.204Z,8.40
2023-08-12T05:09:18.731Z,9.43
2023-08-12T05:09:51.290Z,9.77
2023-08-12T05:10:24.065Z,8.80
2023-08-12T05:10:56.553Z,9.03
2023-08-12T05:11:29.032Z,9.43
2023-08-12T05:12:01.526Z,9.63
2023-08-12T05:12:34.039Z,8.80
2023-08-12T05:13:06.818Z,8.80
2023-08-12T05:13:39.328Z,8.70
2023-08-12T05:14:11.860Z,9.37
2023-08-12T05:14:44.399Z,8.70
2023-08-12T05:15:17.164Z,8.63
2023-08-12T05:15:49.720Z,8.23
2023-08-12T05:16:22.278Z,7.83
2023-08-12T05:16:54.816Z,7.80
2023-08-12T05:17:27.400Z,8.40
2023-08-12T05:17:59.935Z,8.73
2023-08-12T05:18:32.480Z,8.20
2023-08-12T05:19:05.114Z,7.57
2023-08-12T05:19:37.628Z,7.53
2023-08-12T05:20:10.562Z,8.00
2023-08-12T05:20:46.474Z,7.77
2023-08-12T05:21:19.796Z,7.63
2023-08-12T05:21:52.285Z,8.33
2023-08-12T05:22:24.808Z,7.90
2023-08-12T05:22:57.335Z,7.83
2023-08-12T05:23:29.819Z,7.77
2023-08-12T05:24:02.357Z,7.63
2023-08-12T05:24:34.879Z,7.37
2023-08-12T05:25:08.239Z,8.43
2023-08-12T05:25:42.062Z,7.63
2023-08-12T05:26:14.647Z,8.03
2023-08-12T05:26:48.357Z,8.40
2023-08-12T05:27:20.847Z,8.30
2023-08-12T05:27:53.323Z,8.30
2023-08-12T05:28:25.827Z,7.77
2023-08-12T05:28:58.355Z,7.53
2023-08-12T05:29:31.216Z,7.50
2023-08-12T05:30:03.930Z,7.53
2023-08-12T05:30:36.845Z,7.23
2023-08-12T05:31:09.374Z,7.80
2023-08-12T05:31:42.107Z,7.73
2023-08-12T05:32:14.868Z,7.97
2023-08-12T05:32:47.630Z,7.50
2023-08-12T05:33:20.281Z,7.30
2023-08-12T05:33:53.321Z,7.27
2023-08-12T05:34:25.890Z,7.07
2023-08-12T05:34:58.397Z,7.30
2023-08-12T05:35:34.657Z,7.17
2023-08-12T05:36:07.200Z,6.77
2023-08-12T05:36:39.754Z,7.07
2023-08-12T05:37:12.547Z,6.80
2023-08-12T05:37:45.064Z,6.93
2023-08-12T05:38:17.758Z,6.20
2023-08-12T05:38:50.283Z,7.33
2023-08-12T05:39:22.811Z,6.80
2023-08-12T05:39:55.354Z,6.37
2023-08-12T05:40:28.267Z,6.17
2023-08-12T05:41:05.234Z,6.77
2023-08-12T05:41:37.824Z,6.70
2023-08-12T05:42:10.675Z,6.47
2023-08-12T05:42:46.145Z,6.67
2023-08-12T05:43:18.665Z,6.83
2023-08-12T05:44:00.525Z,6.53
2023-08-12T05:44:33.088Z,6.70
2023-08-12T05:45:08.143Z,5.93
2023-08-12T05:45:41.281Z,6.00
2023-08-12T05:46:13.916Z,6.10
2023-08-12T05:46:51.552Z,6.33
2023-08-12T05:47:24.048Z,6.20
2023-08-12T05:47:56.562Z,6.73
2023-08-12T05:48:29.559Z,6.63
2023-08-12T05:49:02.093Z,6.20
2023-08-12T05:49:34.610Z,5.60
2023-08-12T05:50:07.635Z,6.37
2023-08-12T05:50:40.137Z,6.47
2023-08-12T05:51:12.682Z,6.43
2023-08-12T05:51:45.224Z,7.27
2023-08-12T05:52:37.805Z,6.23
2023-08-12T05:53:10.630Z,6.80
2023-08-12T05:53:43.172Z,6.77
2023-08-12T05:54:15.795Z,6.10
2023-08-12T05:54:48.312Z,6.10
2023-08-12T05:55:20.837Z,5.80
2023-08-12T05:55:53.346Z,6.50
2023-08-12T05:56:26.101Z,6.03
2023-08-12T05:56:59.514Z,6.43
2023-08-12T05:57:32.052Z,6.17
2023-08-12T05:58:05.870Z,5.40
2023-08-12T05:58:38.378Z,6.17
2023-08-12T05:59:10.905Z,6.40
2023-08-12T05:59:43.396Z,6.00
2023-08-12T06:00:18.029Z,6.10
2023-08-12T06:00:51.375Z,6.57
2023-08-12T06:01:23.915Z,6.47
2023-08-12T06:01:56.457Z,5.80
2023-08-12T06:02:28.954Z,6.07
2023-08-12T06:03:01.578Z,6.20
2023-08-12T06:03:34.130Z,5.17
2023-08-12T06:04:09.129Z,5.80
2023-08-12T06:04:41.691Z,6.07
2023-08-12T06:05:14.185Z,6.17
2023-08-12T06:05:48.028Z,5.80
2023-08-12T06:06:20.544Z,6.07
2023-08-12T06:06:53.106Z,6.30
2023-08-12T06:07:25.636Z,6.33
2023-08-12T06:07:58.173Z,6.10
2023-08-12T06:08:30.686Z,6.07
2023-08-12T06:09:03.241Z,6.00
2023-08-12T06:09:35.727Z,5.70
2023-08-12T06:10:08.382Z,5.97
2023-08-12T06:10:41.022Z,5.53
2023-08-12T06:11:13.511Z,5.47
2023-08-12T06:11:46.148Z,5.57
2023-08-12T06:12:18.658Z,5.63
2023-08-12T06:12:51.192Z,5.27
2023-08-12T06:13:23.717Z,5.80
2023-08-12T06:13:56.243Z,6.70
2023-08-12T06:14:29.391Z,6.20
2023-08-12T06:15:02.442Z,6.07
2023-08-12T06:15:34.973Z,5.97
2023-08-12T06:16:07.696Z,5.97
2023-08-12T06:16:40.324Z,6.17
2023-08-12T06:17:12.823Z,6.07
2023-08-12T06:17:45.355Z,5.80
2023-08-12T06:18:17.921Z,6.07
2023-08-12T06:18:50.460Z,6.40
2023-08-12T06:19:22.999Z,6.40
2023-08-12T06:19:55.572Z,5.70
2023-08-12T06:20:28.124Z,5.83
2023-08-12T06:21:00.656Z,5.83
2023-08-12T06:21:33.156Z,5.50
2023-08-12T06:22:05.701Z,6.03
2023-08-12T06:22:38.482Z,6.10
2023-08-12T06:23:10.978Z,6.00
2023-08-12T06:23:44.125Z,5.77
2023-08-12T06:24:16.659Z,5.90
2023-08-12T06:24:49.199Z,6.07
2023-08-12T06:25:21.732Z,5.53
2023-08-12T06:25:54.263Z,5.20
2023-08-12T06:26:26.785Z,5.37
2023-08-12T06:26:59.326Z,5.73
2023-08-12T06:27:31.855Z,6.30
2023-08-12T06:28:05.737Z,5.67
2023-08-12T06:28:38.239Z,5.00
2023-08-12T06:29:10.756Z,5.50
2023-08-12T06:29:43.263Z,5.30
2023-08-12T06:30:15.970Z,5.17
2023-08-12T06:30:49.423Z,6.30
2023-08-12T06:31:21.936Z,5.13
2023-08-12T06:31:54.742Z,5.43
2023-08-12T06:32:27.277Z,5.97
2023-08-12T06:32:59.911Z,6.17
2023-08-12T06:33:32.409Z,5.53
2023-08-12T06:34:05.025Z,6.10
2023-08-12T06:34:37.511Z,5.73
2023-08-12T06:35:10.265Z,5.70
2023-08-12T06:35:43.335Z,5.80
2023-08-12T06:36:15.876Z,4.93
2023-08-12T06:36:48.360Z,5.13
2023-08-12T06:37:20.900Z,5.60
2023-08-12T06:37:53.432Z,6.77
2023-08-12T06:38:25.939Z,6.17
2023-08-12T06:38:58.453Z,6.20
2023-08-12T06:39:31.099Z,5.87
2023-08-12T06:40:04.814Z,5.80
2023-08-12T06:40:39.400Z,6.30
2023-08-12T06:41:11.900Z,5.90
2023-08-12T06:41:44.419Z,5.50
2023-08-12T06:42:16.938Z,5.57
2023-08-12T06:42:49.473Z,5.67
2023-08-12T06:43:21.998Z,5.93
2023-08-12T06:43:54.529Z,5.97
2023-08-12T06:44:27.057Z,6.10
2023-08-12T06:45:01.072Z,6.07
2023-08-12T06:45:33.594Z,6.07
2023-08-12T06:46:06.177Z,6.77
2023-08-12T06:46:38.688Z,6.43
2023-08-12T06:47:11.211Z,6.40
2023-08-12T06:47:43.722Z,6.70
2023-08-12T06:48:16.298Z,5.87
2023-08-12T06:48:48.831Z,6.53
2023-08-12T06:49:21.329Z,6.50
2023-08-12T06:49:54.034Z,6.37
2023-08-12T06:50:26.681Z,6.47
2023-08-12T06:50:59.198Z,6.17
2023-08-12T06:51:31.701Z,6.27
2023-08-12T06:52:04.303Z,6.03
2023-08-12T06:52:37.595Z,6.23
2023-08-12T06:53:10.186Z,6.13
2023-08-12T06:53:44.354Z,5.90
2023-08-12T06:54:16.869Z,5.30
2023-08-12T06:54:49.437Z,5.07
2023-08-12T06:55:21.923Z,5.00
2023-08-12T06:55:54.427Z,5.60
2023-08-12T06:56:26.967Z,6.10
2023-08-12T06:56:59.470Z,5.63
2023-08-12T06:57:32.005Z,5.47
2023-08-12T06:58:04.844Z,5.47
2023-08-12T06:58:37.374Z,5.70
2023-08-12T06:59:09.966Z,5.90
2023-08-12T06:59:42.716Z,5.43
2023-08-12T07:00:15.403Z,5.67
2023-08-12T07:00:47.924Z,5.80
2023-08-12T07:01:20.449Z,5.47
2023-08-12T07:01:52.958Z,5.50
2023-08-12T07:02:25.522Z,5.43
2023-08-12T07:03:00.422Z,5.27
2023-08-12T07:03:34.047Z,5.13
2023-08-12T07:04:06.661Z,5.53
2023-08-12T07:04:39.210Z,5.47
2023-08-12T07:05:11.834Z,5.53
2023-08-12T07:05:44.377Z,5.07
2023-08-12T07:06:16.885Z,5.03
2023-08-12T07:06:49.385Z,5.23
2023-08-12T07:07:21.889Z,5.37
2023-08-12T07:07:54.384Z,5.20
2023-08-12T07:08:28.241Z,5.13
2023-08-12T07:09:00.936Z,4.53
2023-08-12T07:09:33.474Z,4.97
2023-08-12T07:10:07.420Z,4.67
2023-08-12T07:10:40.870Z,4.50
2023-08-12T07:11:13.889Z,5.13
2023-08-12T07:11:46.465Z,5.53
2023-08-12T07:12:18.971Z,5.07
2023-08-12T07:12:51.507Z,5.03
2023-08-12T07:13:24.053Z,5.13